Flight Track Log - Related Links

Times and Time Zones

All times are in EDT time to prevent confusion due to time zone crossing. See the UAL623 flight status page for this flight to view local times or setup timezone preferences in your user account.

Time Position Orientation Groundspeed Altitude Reporting Facility
EDT Latitude Longitude Course Direction KTS MPH feet Rate Location/Type
Tue 04:16:10 PM 41.3939 -81.8869 270° West 165 190 1,800  Level Cleveland Center
Tue 04:18:00 PM 41.3477 -82.1926 263° West  Level FlightAware Approximate
Tue 04:18:09 PM 41.4067 -82.0311 277° West 237 273 6,400  Level Cleveland Center
Tue 04:19:00 PM 41.3371 -82.3093 263° West  Level FlightAware Approximate
Tue 04:19:09 PM 41.3889 -82.1164 254° West 237 273 10,700  Level Cleveland Center
Tue 04:20:00 PM 41.3171 -82.4234 254° West  Level FlightAware Approximate
Tue 04:20:09 PM 41.3689 -82.2100 254° West 256 295 12,200  Level Cleveland Center
Tue 04:21:00 PM 41.3000 -82.5376 270° West  Level FlightAware Approximate
Tue 04:21:09 PM 41.3403 -82.3200 251° West 302 348 14,900  Level Cleveland Center
Tue 04:22:09 PM 41.2883 -82.4403 240° Southwest 331 381 17,500 2,350 Climbing Cleveland Center
Tue 04:23:09 PM 41.2342 -82.5628 240° Southwest 359 413 19,600 1,400 Climbing Cleveland Center
Tue 04:24:09 PM 41.1881 -82.6856 244° Southwest 380 437 20,300 1,500 Climbing Cleveland Center
Tue 04:25:09 PM 41.1939 -82.8211 273° West 363 418 22,600 2,200 Climbing Cleveland Center
Tue 04:26:09 PM 41.1953 -82.9619 271° West 373 429 24,700 2,050 Climbing Cleveland Center
Tue 04:27:09 PM 41.1942 -83.0997 269° West 378 435 26,700 2,150 Climbing Cleveland Center
Tue 04:28:09 PM 41.1933 -83.2378 270° West 383 441 29,000 1,650 Climbing Cleveland Center
Tue 04:29:09 PM 41.1942 -83.3758 271° West 383 441 30,000 500 Climbing Cleveland Center
Tue 04:30:09 PM 41.1947 -83.5167 270° West 383 441 30,000  Level Cleveland Center
Tue 04:31:09 PM 41.1931 -83.6572 269° West 383 441 30,000  Level Cleveland Center
Tue 04:32:09 PM 41.1933 -83.8008 270° West 383 441 30,000  Level Cleveland Center
Tue 04:33:50 PM 41.1978 -84.0189 272° West 387 445 30,000  Level Chicago Center
Tue 04:34:52 PM 41.1961 -84.1622 269° West 387 445 30,000  Level Chicago Center
Tue 04:35:54 PM 41.1978 -84.3031 271° West 383 441 30,000  Level Chicago Center
Tue 04:36:56 PM 41.2081 -84.4708 275° West 379 436 30,000  Level Chicago Center
Tue 04:37:58 PM 41.2153 -84.6094 274° West 376 433 30,000  Level Chicago Center
Tue 04:39:00 PM 41.2231 -84.7492 274° West 378 435 30,000 -145 Level Chicago Center
Tue 04:40:02 PM 41.2303 -84.8908 274° West 383 441 29,700 -532 Descending Chicago Center
Tue 04:41:04 PM 41.2361 -85.0339 273° West 385 443 28,900 -774 Descending Chicago Center
Tue 04:42:06 PM 41.2439 -85.1761 274° West 385 443 28,100 -816 Descending Chicago Center
Tue 04:43:09 PM 41.2525 -85.3436 274° West 380 437 27,200 -768 Descending Chicago Center
Tue 04:44:11 PM 41.2575 -85.4839 273° West 377 434 26,500 -629 Descending Chicago Center
Tue 04:45:13 PM 41.2644 -85.6206 274° West 370 426 25,900 -581 Descending Chicago Center
Tue 04:46:15 PM 41.2708 -85.7569 274° West 368 423 25,300 -435 Descending Chicago Center
Tue 04:47:17 PM 41.2983 -85.8839 286° West 366 421 25,000 -194 Descending Chicago Center
Tue 04:48:19 PM 41.3436 -86.0014 297° West 357 411 24,900 -532 Descending Chicago Center
Tue 04:49:21 PM 41.3903 -86.1178 298° West 356 410 23,900 -1,306 Descending Chicago Center
Tue 04:50:23 PM 41.4450 -86.2569 298° West 354 407 22,200 -1,887 Descending Chicago Center
Tue 04:51:25 PM 41.4894 -86.3703 298° West 349 402 20,000 -2,081 Descending Chicago Center
Tue 04:52:27 PM 41.5336 -86.4789 299° West 338 389 17,900 -1,984 Descending Chicago Center
Tue 04:53:29 PM 41.5736 -86.5819 297° West 316 364 15,900 -1,887 Descending Chicago Center
Tue 04:54:31 PM 41.6136 -86.6831 298° West 309 356 14,000 -1,839 Descending Chicago Center
Tue 04:55:33 PM 41.6767 -86.7944 307° West 331 381 12,100 -912 Descending Chicago Center
Tue 04:56:36 PM 41.7664 -86.8078 354° North 330 380 12,100  Level Chicago Center
Tue 04:57:38 PM 41.8519 -86.8517 339° North 336 387 12,100 -484 Level Chicago Center
Tue 04:58:40 PM 41.9039 -86.9475 306° West 319 367 11,100 -968 Descending Chicago Center
Tue 04:59:42 PM 41.9561 -87.0475 305° West 326 375 10,100 -532 Descending Chicago Center
Tue 05:00:44 PM 41.9828 -87.1867 284° West 328 377 10,000 -48 Descending Chicago Center
Tue 05:01:46 PM 41.9836 -87.3097 271° West 330 380 10,000 -167 Level Chicago Center
Tue 05:02:32 PM 41.9833 -87.4000 270° West 263 303 9,700 -1,302 Descending Chicago TRACON
Tue 05:03:32 PM 41.9833 -87.4833 270° West 242 278 7,700 -1,900 Descending Chicago TRACON
Tue 05:04:32 PM 41.9833 -87.5667 270° West 235 270 5,900 -1,736 Descending Chicago TRACON
Tue 05:05:33 PM 41.9833 -87.6500 270° West 227 261 4,200 -1,672 Descending Chicago TRACON

Login

Don't have an account? Register now (free) for customized features, flight alerts, and more!